Asher, OK

10:56 AM CDT on August 01, 2014 (GMT -0500)
Lake View (KOKSTRAT4) Elev 1135 ft | 34.79 °N, 96.96 °W | Change Station

Current weather conditions updated 1 minute ago

Overcast
Overcast
71.5 °F
Feels Like 71 °F
N
5.0
Wind Variable Wind from ENE
Gusts 8.0 mph

Today is forecast to be Much Warmer than yesterday.

Today
High -- | Low -- °F
--% Chance of Precip.
Yesterday
High -- | Low -- °F
Precip. -- in
6:36 AM 8:30 PM
Waxing Crescent, 27% visible
Pressure 30.11 in
Visibility 10.0 miles
Clouds Scattered Clouds 1300 ft
Scattered Clouds 2000 ft
Overcast 3000 ft
Heat Index 71 °F
Dew Point 66 °F
Humidity 84%
Rainfall 0.02 in
Snow Depth Not available.
UV 2 out of 12
Pollen 6.00 out of 12
Air Quality Not available.
Flu Activity Not available.
METAR KADH 011535Z AUTO 06005KT 10SM SCT013 SCT020 OVC030 21/19 A3011 RMK AO2

More Conditions Fewer Conditions

Pressure 30.11 in
Visibility 10.0 miles
Clouds Scattered Clouds 1300 ft
Scattered Clouds 2000 ft
Overcast 3000 ft
Heat Index 71 °F
Dew Point 66 °F
Humidity 84%
Rainfall 0.02 in
Snow Depth Not available.
UV 2 out of 12
Pollen 6.00 out of 12
Air Quality Not available.
Flu Activity Not available.
METAR KADH 011535Z AUTO 06005KT 10SM SCT013 SCT020 OVC030 21/19 A3011 RMK AO2

More Conditions Fewer Conditions

10-Day Weather Forecast

Almanac

Astronomy

Aug. 01, 2014 Rise Set
Actual Time 6:36 AM CDT 8:30 PM CDT
Civil Twilight 6:09 AM CDT 8:57 PM CDT
Nautical Twilight 5:35 AM CDT 9:31 PM CDT
Astronomical Twilight 4:59 AM CDT 10:07 PM CDT
Moon 11:47 AM CDT 11:30 PM CDT
Length of Visible Light 14h 48m
Length of Day
13h 53m
Tomorrow will be 1m 39s shorter.
Waxing Crescent, 27% of the Moon is Illuminated
Today
Waxing Crescent
Aug 3
First Quarter
Aug 10
Full
Aug 17
Last Quarter
Aug 25
New

Today's Extremes

State Highs State Lows

Community

WunderPhotos

Upload Photos

1,739,618 photos uploaded!

Nearby

Snow Depth

Station Depth Elevation
No new snow has been reported.

Earthquake Activity

City Distance Mag. Time & Date
Yale, Oklahoma 81 miles 3.2 5:19 PM CDT
2014-07-27
Medford, Oklahoma 138 miles 2.9 3:39 PM CDT
2014-07-27
Perry, Oklahoma 97 miles 2.8 4:28 AM CDT
2014-07-27
Minimum magnitude displayed is 2.5.

Coastal Water Temperatures

Place Temperature
No Stations Reporting

Nearby Weather Stations

Station Location Temp. Heat Index Dew Point Humidity Wind Precip. Elev Updated Type
Lake View, Stratford, OK 71.5 °F 71 °F 66 °F 84% ENE  at  5.0 mph 0.00 in / hr 1135 ft 10:55 AM CDT Normal
Buffalo Trace Ranch, Pauls Valley, OK 72.1 °F 72 °F 67 °F 83% ENE  at  6.0 mph 0.00 in / hr 1033 ft 10:52 AM CDT Rapid Fire
Northwood, Seminole, OK 73.0 °F 73 °F 68 °F 83% NE  at  6.9 mph 0.00 in / hr 909 ft 10:56 AM CDT Rapid Fire
Strothers & Harvey Road SE, Seminole, OK 72.1 °F 73 °F 64 °F 77% ESE  at  4.0 mph 0.00 in / hr 955 ft 10:56 AM CDT Normal

Show More Stations Show Fewer Stations